sensor_id;sensor_type;location;lat;lon;timestamp;P1;durP1;ratioP1;P2;durP2;ratioP2
61413;SDS011;47279;52.426;10.488;2023-07-13T00:01:24;1.02;;;1.00;;
61413;SDS011;47279;52.426;10.488;2023-07-13T00:03:50;1.17;;;1.13;;
61413;SDS011;47279;52.426;10.488;2023-07-13T00:06:16;1.60;;;1.10;;
61413;SDS011;47279;52.426;10.488;2023-07-13T00:08:42;1.05;;;1.00;;
61413;SDS011;47279;52.426;10.488;2023-07-13T00:11:08;1.10;;;1.00;;
61413;SDS011;47279;52.426;10.488;2023-07-13T00:13:35;1.10;;;1.00;;
61413;SDS011;47279;52.426;10.488;2023-07-13T00:16:04;1.00;;;1.00;;
61413;SDS011;47279;52.426;10.488;2023-07-13T00:18:30;1.13;;;1.02;;
61413;SDS011;47279;52.426;10.488;2023-07-13T00:20:56;1.30;;;1.20;;
61413;SDS011;47279;52.426;10.488;2023-07-13T00:23:29;0.90;;;0.90;;
61413;SDS011;47279;52.426;10.488;2023-07-13T00:25:55;1.30;;;1.20;;
61413;SDS011;47279;52.426;10.488;2023-07-13T00:28:22;1.38;;;1.05;;
61413;SDS011;47279;52.426;10.488;2023-07-13T00:30:48;0.90;;;0.90;;
61413;SDS011;47279;52.426;10.488;2023-07-13T00:33:14;0.90;;;0.90;;
61413;SDS011;47279;52.426;10.488;2023-07-13T00:35:40;1.30;;;1.05;;
61413;SDS011;47279;52.426;10.488;2023-07-13T00:38:08;0.90;;;0.90;;
61413;SDS011;47279;52.426;10.488;2023-07-13T00:40:34;1.25;;;1.10;;
61413;SDS011;47279;52.426;10.488;2023-07-13T00:43:00;1.00;;;1.00;;
61413;SDS011;47279;52.426;10.488;2023-07-13T00:47:53;1.17;;;1.10;;
61413;SDS011;47279;52.426;10.488;2023-07-13T00:50:20;0.93;;;0.90;;
61413;SDS011;47279;52.426;10.488;2023-07-13T00:52:48;1.20;;;1.10;;
61413;SDS011;47279;52.426;10.488;2023-07-13T00:55:15;1.10;;;1.00;;
61413;SDS011;47279;52.426;10.488;2023-07-13T00:57:41;1.08;;;1.08;;
61413;SDS011;47279;52.426;10.488;2023-07-13T01:00:07;1.85;;;1.20;;
61413;SDS011;47279;52.426;10.488;2023-07-13T01:02:34;1.40;;;1.10;;
61413;SDS011;47279;52.426;10.488;2023-07-13T01:05:01;1.20;;;1.10;;
61413;SDS011;47279;52.426;10.488;2023-07-13T01:07:27;1.33;;;1.23;;
61413;SDS011;47279;52.426;10.488;2023-07-13T01:09:53;1.05;;;1.05;;
61413;SDS011;47279;52.426;10.488;2023-07-13T01:12:19;1.27;;;0.90;;
61413;SDS011;47279;52.426;10.488;2023-07-13T01:14:44;1.10;;;1.10;;
61413;SDS011;47279;52.426;10.488;2023-07-13T01:17:11;1.02;;;0.93;;
61413;SDS011;47279;52.426;10.488;2023-07-13T01:19:38;0.90;;;0.90;;
61413;SDS011;47279;52.426;10.488;2023-07-13T01:22:06;1.10;;;1.10;;
61413;SDS011;47279;52.426;10.488;2023-07-13T01:24:37;0.93;;;0.93;;
61413;SDS011;47279;52.426;10.488;2023-07-13T01:27:03;1.10;;;1.05;;
61413;SDS011;47279;52.426;10.488;2023-07-13T01:29:31;1.58;;;1.15;;
61413;SDS011;47279;52.426;10.488;2023-07-13T01:31:57;1.00;;;1.00;;
61413;SDS011;47279;52.426;10.488;2023-07-13T01:34:24;1.10;;;1.00;;
61413;SDS011;47279;52.426;10.488;2023-07-13T01:36:49;0.95;;;0.95;;
61413;SDS011;47279;52.426;10.488;2023-07-13T01:39:18;1.10;;;1.00;;
61413;SDS011;47279;52.426;10.488;2023-07-13T01:41:44;0.80;;;0.80;;
61413;SDS011;47279;52.426;10.488;2023-07-13T01:44:10;1.05;;;0.90;;
61413;SDS011;47279;52.426;10.488;2023-07-13T01:46:36;1.13;;;1.13;;
61413;SDS011;47279;52.426;10.488;2023-07-13T01:49:02;1.10;;;1.02;;
61413;SDS011;47279;52.426;10.488;2023-07-13T01:51:28;1.20;;;1.10;;
61413;SDS011;47279;52.426;10.488;2023-07-13T01:53:54;1.13;;;1.02;;
61413;SDS011;47279;52.426;10.488;2023-07-13T01:56:20;1.00;;;1.00;;
61413;SDS011;47279;52.426;10.488;2023-07-13T01:58:46;1.00;;;1.00;;
61413;SDS011;47279;52.426;10.488;2023-07-13T02:01:12;1.05;;;1.02;;
61413;SDS011;47279;52.426;10.488;2023-07-13T02:03:38;1.23;;;1.10;;
61413;SDS011;47279;52.426;10.488;2023-07-13T02:06:04;1.02;;;0.90;;
61413;SDS011;47279;52.426;10.488;2023-07-13T02:08:31;1.00;;;1.00;;
61413;SDS011;47279;52.426;10.488;2023-07-13T02:10:57;1.20;;;1.10;;
61413;SDS011;47279;52.426;10.488;2023-07-13T02:13:23;1.15;;;1.05;;
61413;SDS011;47279;52.426;10.488;2023-07-13T02:15:52;1.25;;;1.15;;
61413;SDS011;47279;52.426;10.488;2023-07-13T02:18:18;1.10;;;1.00;;
61413;SDS011;47279;52.426;10.488;2023-07-13T02:20:44;0.90;;;0.90;;
61413;SDS011;47279;52.426;10.488;2023-07-13T02:23:10;1.00;;;0.90;;
61413;SDS011;47279;52.426;10.488;2023-07-13T02:25:36;1.20;;;1.10;;
61413;SDS011;47279;52.426;10.488;2023-07-13T02:28:02;1.20;;;1.10;;
61413;SDS011;47279;52.426;10.488;2023-07-13T02:30:28;1.10;;;1.00;;
61413;SDS011;47279;52.426;10.488;2023-07-13T02:32:55;1.15;;;1.05;;
61413;SDS011;47279;52.426;10.488;2023-07-13T02:35:21;1.35;;;1.25;;
61413;SDS011;47279;52.426;10.488;2023-07-13T02:37:47;1.13;;;1.02;;
61413;SDS011;47279;52.426;10.488;2023-07-13T02:40:13;1.00;;;1.00;;
61413;SDS011;47279;52.426;10.488;2023-07-13T02:42:39;1.35;;;1.25;;
61413;SDS011;47279;52.426;10.488;2023-07-13T02:45:05;0.90;;;0.90;;
61413;SDS011;47279;52.426;10.488;2023-07-13T02:47:32;1.23;;;1.10;;
61413;SDS011;47279;52.426;10.488;2023-07-13T02:49:57;1.00;;;1.00;;
61413;SDS011;47279;52.426;10.488;2023-07-13T02:52:24;0.90;;;0.90;;
61413;SDS011;47279;52.426;10.488;2023-07-13T02:54:50;0.82;;;0.82;;
61413;SDS011;47279;52.426;10.488;2023-07-13T02:57:16;1.25;;;0.98;;
61413;SDS011;47279;52.426;10.488;2023-07-13T02:59:42;1.20;;;1.10;;
61413;SDS011;47279;52.426;10.488;2023-07-13T03:02:08;1.00;;;1.00;;
61413;SDS011;47279;52.426;10.488;2023-07-13T03:04:35;1.20;;;1.10;;
61413;SDS011;47279;52.426;10.488;2023-07-13T03:07:01;1.08;;;1.00;;
61413;SDS011;47279;52.426;10.488;2023-07-13T03:09:27;1.15;;;1.05;;
61413;SDS011;47279;52.426;10.488;2023-07-13T03:11:53;0.90;;;0.90;;
61413;SDS011;47279;52.426;10.488;2023-07-13T03:14:20;1.08;;;0.98;;
61413;SDS011;47279;52.426;10.488;2023-07-13T03:16:46;1.00;;;1.00;;
61413;SDS011;47279;52.426;10.488;2023-07-13T03:19:12;1.10;;;1.00;;
61413;SDS011;47279;52.426;10.488;2023-07-13T03:21:38;1.27;;;1.10;;
61413;SDS011;47279;52.426;10.488;2023-07-13T03:24:04;2.60;;;1.02;;
61413;SDS011;47279;52.426;10.488;2023-07-13T03:26:30;1.33;;;1.23;;
61413;SDS011;47279;52.426;10.488;2023-07-13T03:28:56;0.90;;;0.90;;
61413;SDS011;47279;52.426;10.488;2023-07-13T03:31:24;1.17;;;1.08;;
61413;SDS011;47279;52.426;10.488;2023-07-13T03:33:50;0.90;;;0.90;;
61413;SDS011;47279;52.426;10.488;2023-07-13T03:36:18;1.10;;;1.10;;
61413;SDS011;47279;52.426;10.488;2023-07-13T03:38:48;1.10;;;1.10;;
61413;SDS011;47279;52.426;10.488;2023-07-13T03:41:14;2.13;;;1.13;;
61413;SDS011;47279;52.426;10.488;2023-07-13T03:43:41;1.27;;;1.17;;
61413;SDS011;47279;52.426;10.488;2023-07-13T03:46:07;0.98;;;0.98;;
61413;SDS011;47279;52.426;10.488;2023-07-13T03:48:33;1.00;;;1.00;;
61413;SDS011;47279;52.426;10.488;2023-07-13T03:50:59;1.10;;;1.00;;
61413;SDS011;47279;52.426;10.488;2023-07-13T03:53:25;1.38;;;1.27;;
61413;SDS011;47279;52.426;10.488;2023-07-13T03:55:51;1.10;;;1.00;;
61413;SDS011;47279;52.426;10.488;2023-07-13T03:58:26;1.00;;;1.00;;
61413;SDS011;47279;52.426;10.488;2023-07-13T04:00:52;0.90;;;0.90;;
61413;SDS011;47279;52.426;10.488;2023-07-13T04:03:18;1.23;;;1.10;;
61413;SDS011;47279;52.426;10.488;2023-07-13T04:05:44;1.00;;;1.00;;
61413;SDS011;47279;52.426;10.488;2023-07-13T04:08:11;1.00;;;1.00;;
61413;SDS011;47279;52.426;10.488;2023-07-13T04:10:37;1.00;;;1.00;;
61413;SDS011;47279;52.426;10.488;2023-07-13T04:13:03;1.00;;;1.00;;
61413;SDS011;47279;52.426;10.488;2023-07-13T04:15:29;1.20;;;1.10;;
61413;SDS011;47279;52.426;10.488;2023-07-13T04:17:55;1.30;;;1.20;;
61413;SDS011;47279;52.426;10.488;2023-07-13T04:20:22;1.20;;;1.10;;
61413;SDS011;47279;52.426;10.488;2023-07-13T04:22:48;1.20;;;1.10;;
61413;SDS011;47279;52.426;10.488;2023-07-13T04:25:15;1.17;;;1.10;;
61413;SDS011;47279;52.426;10.488;2023-07-13T04:27:41;1.00;;;1.00;;
61413;SDS011;47279;52.426;10.488;2023-07-13T04:30:07;1.00;;;1.00;;
61413;SDS011;47279;52.426;10.488;2023-07-13T04:32:33;1.30;;;1.20;;
61413;SDS011;47279;52.426;10.488;2023-07-13T04:34:59;1.20;;;1.10;;
61413;SDS011;47279;52.426;10.488;2023-07-13T04:37:25;1.35;;;1.25;;
61413;SDS011;47279;52.426;10.488;2023-07-13T04:39:52;1.50;;;1.10;;
61413;SDS011;47279;52.426;10.488;2023-07-13T04:42:18;1.33;;;1.23;;
61413;SDS011;47279;52.426;10.488;2023-07-13T04:44:50;1.10;;;1.00;;
61413;SDS011;47279;52.426;10.488;2023-07-13T04:47:17;1.00;;;1.00;;
61413;SDS011;47279;52.426;10.488;2023-07-13T04:49:43;1.13;;;1.02;;
61413;SDS011;47279;52.426;10.488;2023-07-13T04:52:09;3.33;;;2.63;;
61413;SDS011;47279;52.426;10.488;2023-07-13T04:54:35;4.20;;;3.00;;
61413;SDS011;47279;52.426;10.488;2023-07-13T04:57:02;3.67;;;2.97;;
61413;SDS011;47279;52.426;10.488;2023-07-13T04:59:29;4.85;;;3.20;;
61413;SDS011;47279;52.426;10.488;2023-07-13T05:01:55;5.13;;;3.03;;
61413;SDS011;47279;52.426;10.488;2023-07-13T05:04:21;3.72;;;2.95;;
61413;SDS011;47279;52.426;10.488;2023-07-13T05:06:47;5.57;;;3.13;;
61413;SDS011;47279;52.426;10.488;2023-07-13T05:09:13;4.82;;;3.60;;
61413;SDS011;47279;52.426;10.488;2023-07-13T05:11:39;5.28;;;3.42;;
61413;SDS011;47279;52.426;10.488;2023-07-13T05:14:05;4.32;;;3.10;;
61413;SDS011;47279;52.426;10.488;2023-07-13T05:16:30;5.18;;;2.85;;
61413;SDS011;47279;52.426;10.488;2023-07-13T05:18:57;6.50;;;3.20;;
61413;SDS011;47279;52.426;10.488;2023-07-13T05:21:23;5.60;;;3.15;;
61413;SDS011;47279;52.426;10.488;2023-07-13T05:23:49;5.20;;;2.95;;
61413;SDS011;47279;52.426;10.488;2023-07-13T05:26:15;4.30;;;3.10;;
61413;SDS011;47279;52.426;10.488;2023-07-13T05:28:42;6.60;;;3.10;;
61413;SDS011;47279;52.426;10.488;2023-07-13T05:31:08;5.00;;;2.85;;
61413;SDS011;47279;52.426;10.488;2023-07-13T05:33:34;4.15;;;2.63;;
61413;SDS011;47279;52.426;10.488;2023-07-13T05:36:00;5.07;;;2.92;;
61413;SDS011;47279;52.426;10.488;2023-07-13T05:38:27;6.32;;;2.92;;
61413;SDS011;47279;52.426;10.488;2023-07-13T05:40:53;3.67;;;2.42;;
61413;SDS011;47279;52.426;10.488;2023-07-13T05:43:20;6.55;;;2.97;;
61413;SDS011;47279;52.426;10.488;2023-07-13T05:45:46;4.40;;;2.63;;
61413;SDS011;47279;52.426;10.488;2023-07-13T05:48:11;3.85;;;2.55;;
61413;SDS011;47279;52.426;10.488;2023-07-13T05:50:37;5.97;;;2.90;;
61413;SDS011;47279;52.426;10.488;2023-07-13T05:53:03;5.30;;;2.90;;
61413;SDS011;47279;52.426;10.488;2023-07-13T05:55:29;5.88;;;2.75;;
61413;SDS011;47279;52.426;10.488;2023-07-13T05:57:56;4.35;;;2.85;;
61413;SDS011;47279;52.426;10.488;2023-07-13T06:00:23;5.00;;;2.72;;
61413;SDS011;47279;52.426;10.488;2023-07-13T06:02:49;4.47;;;3.08;;
61413;SDS011;47279;52.426;10.488;2023-07-13T06:05:15;4.13;;;2.92;;
61413;SDS011;47279;52.426;10.488;2023-07-13T06:07:41;6.13;;;2.90;;
61413;SDS011;47279;52.426;10.488;2023-07-13T06:10:07;5.20;;;2.65;;
61413;SDS011;47279;52.426;10.488;2023-07-13T06:12:33;4.13;;;2.85;;
61413;SDS011;47279;52.426;10.488;2023-07-13T06:14:59;4.55;;;2.90;;
61413;SDS011;47279;52.426;10.488;2023-07-13T06:17:25;5.25;;;2.95;;
61413;SDS011;47279;52.426;10.488;2023-07-13T06:19:51;5.65;;;2.83;;
61413;SDS011;47279;52.426;10.488;2023-07-13T06:22:17;5.28;;;2.88;;
61413;SDS011;47279;52.426;10.488;2023-07-13T06:24:43;5.82;;;3.10;;
61413;SDS011;47279;52.426;10.488;2023-07-13T06:27:09;4.75;;;3.05;;
61413;SDS011;47279;52.426;10.488;2023-07-13T06:29:35;4.40;;;2.92;;
61413;SDS011;47279;52.426;10.488;2023-07-13T06:32:01;5.00;;;2.85;;
61413;SDS011;47279;52.426;10.488;2023-07-13T06:34:27;5.30;;;2.78;;
61413;SDS011;47279;52.426;10.488;2023-07-13T06:36:53;3.55;;;2.78;;
61413;SDS011;47279;52.426;10.488;2023-07-13T06:39:19;5.22;;;2.70;;
61413;SDS011;47279;52.426;10.488;2023-07-13T06:41:45;8.45;;;3.00;;
61413;SDS011;47279;52.426;10.488;2023-07-13T06:44:10;5.90;;;2.75;;
61413;SDS011;47279;52.426;10.488;2023-07-13T06:46:37;5.13;;;2.90;;
61413;SDS011;47279;52.426;10.488;2023-07-13T06:49:03;6.68;;;3.05;;
61413;SDS011;47279;52.426;10.488;2023-07-13T06:51:28;4.95;;;2.50;;
61413;SDS011;47279;52.426;10.488;2023-07-13T06:53:54;6.25;;;2.40;;
61413;SDS011;47279;52.426;10.488;2023-07-13T06:56:21;7.15;;;2.72;;
61413;SDS011;47279;52.426;10.488;2023-07-13T06:58:46;5.88;;;2.42;;
61413;SDS011;47279;52.426;10.488;2023-07-13T07:01:12;8.60;;;2.80;;
61413;SDS011;47279;52.426;10.488;2023-07-13T07:03:38;5.00;;;2.33;;
61413;SDS011;47279;52.426;10.488;2023-07-13T07:06:16;5.90;;;2.47;;
61413;SDS011;47279;52.426;10.488;2023-07-13T07:08:42;3.83;;;2.40;;
61413;SDS011;47279;52.426;10.488;2023-07-13T07:11:16;6.65;;;2.60;;
61413;SDS011;47279;52.426;10.488;2023-07-13T07:13:43;7.05;;;2.42;;
61413;SDS011;47279;52.426;10.488;2023-07-13T07:16:08;5.35;;;2.25;;
61413;SDS011;47279;52.426;10.488;2023-07-13T07:18:35;5.43;;;2.88;;
61413;SDS011;47279;52.426;10.488;2023-07-13T07:21:01;5.97;;;3.05;;
61413;SDS011;47279;52.426;10.488;2023-07-13T07:23:27;7.78;;;2.58;;
61413;SDS011;47279;52.426;10.488;2023-07-13T07:25:53;6.13;;;3.03;;
61413;SDS011;47279;52.426;10.488;2023-07-13T07:28:19;7.57;;;3.55;;
61413;SDS011;47279;52.426;10.488;2023-07-13T07:30:45;6.50;;;2.88;;
61413;SDS011;47279;52.426;10.488;2023-07-13T07:33:11;7.80;;;3.00;;
61413;SDS011;47279;52.426;10.488;2023-07-13T07:35:37;5.57;;;3.15;;
61413;SDS011;47279;52.426;10.488;2023-07-13T07:38:03;6.30;;;2.97;;
61413;SDS011;47279;52.426;10.488;2023-07-13T07:40:29;5.43;;;2.70;;
61413;SDS011;47279;52.426;10.488;2023-07-13T07:42:56;5.78;;;2.63;;
61413;SDS011;47279;52.426;10.488;2023-07-13T07:45:22;6.68;;;3.00;;
61413;SDS011;47279;52.426;10.488;2023-07-13T07:47:48;6.43;;;2.70;;
61413;SDS011;47279;52.426;10.488;2023-07-13T07:50:14;6.22;;;3.03;;
61413;SDS011;47279;52.426;10.488;2023-07-13T07:52:40;5.50;;;2.63;;
61413;SDS011;47279;52.426;10.488;2023-07-13T07:55:06;3.65;;;2.75;;
61413;SDS011;47279;52.426;10.488;2023-07-13T07:57:32;7.15;;;3.05;;
61413;SDS011;47279;52.426;10.488;2023-07-13T07:59:59;6.03;;;2.70;;
61413;SDS011;47279;52.426;10.488;2023-07-13T08:02:25;6.40;;;2.92;;
61413;SDS011;47279;52.426;10.488;2023-07-13T08:04:51;5.22;;;3.17;;
61413;SDS011;47279;52.426;10.488;2023-07-13T08:07:18;5.47;;;2.92;;
61413;SDS011;47279;52.426;10.488;2023-07-13T08:09:44;8.27;;;3.47;;
61413;SDS011;47279;52.426;10.488;2023-07-13T08:12:11;5.20;;;3.00;;
61413;SDS011;47279;52.426;10.488;2023-07-13T08:14:37;3.97;;;2.90;;
61413;SDS011;47279;52.426;10.488;2023-07-13T08:17:03;4.28;;;2.88;;
61413;SDS011;47279;52.426;10.488;2023-07-13T08:19:30;6.20;;;3.20;;
61413;SDS011;47279;52.426;10.488;2023-07-13T08:21:56;4.45;;;3.28;;
61413;SDS011;47279;52.426;10.488;2023-07-13T08:24:22;4.80;;;3.17;;
61413;SDS011;47279;52.426;10.488;2023-07-13T08:26:48;5.65;;;3.10;;
61413;SDS011;47279;52.426;10.488;2023-07-13T08:29:15;6.97;;;3.63;;
61413;SDS011;47279;52.426;10.488;2023-07-13T08:31:40;5.72;;;3.40;;
61413;SDS011;47279;52.426;10.488;2023-07-13T08:34:06;4.90;;;3.03;;
61413;SDS011;47279;52.426;10.488;2023-07-13T08:36:32;6.85;;;3.45;;
61413;SDS011;47279;52.426;10.488;2023-07-13T08:38:58;4.78;;;2.95;;
61413;SDS011;47279;52.426;10.488;2023-07-13T08:41:24;4.95;;;3.10;;
61413;SDS011;47279;52.426;10.488;2023-07-13T08:43:51;6.13;;;3.28;;
61413;SDS011;47279;52.426;10.488;2023-07-13T08:46:26;6.27;;;3.00;;
61413;SDS011;47279;52.426;10.488;2023-07-13T08:48:56;4.03;;;3.10;;
61413;SDS011;47279;52.426;10.488;2023-07-13T08:54:03;6.70;;;3.20;;
61413;SDS011;47279;52.426;10.488;2023-07-13T08:56:30;4.03;;;3.20;;
61413;SDS011;47279;52.426;10.488;2023-07-13T08:59:04;4.95;;;3.15;;
61413;SDS011;47279;52.426;10.488;2023-07-13T09:01:54;3.90;;;3.05;;
61413;SDS011;47279;52.426;10.488;2023-07-13T09:04:26;4.65;;;3.00;;
61413;SDS011;47279;52.426;10.488;2023-07-13T09:11:57;4.40;;;2.75;;
61413;SDS011;47279;52.426;10.488;2023-07-13T09:16:51;3.42;;;2.88;;
61413;SDS011;47279;52.426;10.488;2023-07-13T09:19:23;4.32;;;3.08;;
61413;SDS011;47279;52.426;10.488;2023-07-13T09:21:51;3.00;;;2.70;;
61413;SDS011;47279;52.426;10.488;2023-07-13T09:26:55;3.00;;;2.45;;
61413;SDS011;47279;52.426;10.488;2023-07-13T09:29:28;3.67;;;2.50;;
61413;SDS011;47279;52.426;10.488;2023-07-13T09:31:55;3.08;;;2.75;;
61413;SDS011;47279;52.426;10.488;2023-07-13T09:34:23;2.90;;;2.60;;
61413;SDS011;47279;52.426;10.488;2023-07-13T09:36:49;2.65;;;2.45;;
61413;SDS011;47279;52.426;10.488;2023-07-13T09:39:24;5.10;;;2.88;;
61413;SDS011;47279;52.426;10.488;2023-07-13T09:41:53;3.08;;;2.50;;
61413;SDS011;47279;52.426;10.488;2023-07-13T09:44:30;4.88;;;2.75;;
61413;SDS011;47279;52.426;10.488;2023-07-13T09:46:57;3.05;;;2.78;;
61413;SDS011;47279;52.426;10.488;2023-07-13T09:49:24;3.90;;;2.70;;
61413;SDS011;47279;52.426;10.488;2023-07-13T09:51:57;3.42;;;2.65;;
61413;SDS011;47279;52.426;10.488;2023-07-13T09:54:23;3.45;;;2.67;;
61413;SDS011;47279;52.426;10.488;2023-07-13T09:56:57;2.80;;;2.60;;
61413;SDS011;47279;52.426;10.488;2023-07-13T09:59:26;2.78;;;2.47;;
61413;SDS011;47279;52.426;10.488;2023-07-13T10:01:52;4.10;;;2.63;;
61413;SDS011;47279;52.426;10.488;2023-07-13T10:04:19;2.58;;;2.22;;
61413;SDS011;47279;52.426;10.488;2023-07-13T10:06:46;3.10;;;2.50;;
61413;SDS011;47279;52.426;10.488;2023-07-13T10:09:18;3.55;;;2.67;;
61413;SDS011;47279;52.426;10.488;2023-07-13T10:11:44;2.95;;;2.47;;
61413;SDS011;47279;52.426;10.488;2023-07-13T10:16:39;2.70;;;2.50;;
61413;SDS011;47279;52.426;10.488;2023-07-13T10:19:11;3.20;;;2.85;;
61413;SDS011;47279;52.426;10.488;2023-07-13T10:21:46;3.70;;;2.42;;
61413;SDS011;47279;52.426;10.488;2023-07-13T10:24:23;3.45;;;2.60;;
61413;SDS011;47279;52.426;10.488;2023-07-13T10:26:57;2.75;;;2.45;;
61413;SDS011;47279;52.426;10.488;2023-07-13T10:29:26;2.30;;;2.10;;
61413;SDS011;47279;52.426;10.488;2023-07-13T10:31:52;3.22;;;2.28;;
61413;SDS011;47279;52.426;10.488;2023-07-13T10:34:18;3.53;;;2.42;;
61413;SDS011;47279;52.426;10.488;2023-07-13T10:36:45;2.83;;;2.50;;
61413;SDS011;47279;52.426;10.488;2023-07-13T10:39:26;3.22;;;2.22;;
61413;SDS011;47279;52.426;10.488;2023-07-13T10:41:57;3.05;;;2.78;;
61413;SDS011;47279;52.426;10.488;2023-07-13T10:44:25;2.78;;;2.58;;
61413;SDS011;47279;52.426;10.488;2023-07-13T10:46:54;2.95;;;2.55;;
61413;SDS011;47279;52.426;10.488;2023-07-13T10:49:21;2.50;;;2.30;;
61413;SDS011;47279;52.426;10.488;2023-07-13T10:51:47;3.28;;;2.40;;
61413;SDS011;47279;52.426;10.488;2023-07-13T10:56:41;2.60;;;2.40;;
61413;SDS011;47279;52.426;10.488;2023-07-13T10:59:12;2.53;;;2.33;;
61413;SDS011;47279;52.426;10.488;2023-07-13T11:01:51;2.50;;;2.30;;
61413;SDS011;47279;52.426;10.488;2023-07-13T11:04:19;3.13;;;2.50;;
61413;SDS011;47279;52.426;10.488;2023-07-13T11:06:47;3.10;;;2.50;;
61413;SDS011;47279;52.426;10.488;2023-07-13T11:11:43;2.97;;;2.20;;
61413;SDS011;47279;52.426;10.488;2023-07-13T11:14:26;2.28;;;2.08;;
61413;SDS011;47279;52.426;10.488;2023-07-13T11:16:53;2.40;;;2.20;;
61413;SDS011;47279;52.426;10.488;2023-07-13T11:24:47;2.50;;;2.30;;
61413;SDS011;47279;52.426;10.488;2023-07-13T11:35:40;2.53;;;2.33;;
61413;SDS011;47279;52.426;10.488;2023-07-13T11:38:15;2.03;;;1.83;;
61413;SDS011;47279;52.426;10.488;2023-07-13T11:40:43;2.65;;;1.90;;
61413;SDS011;47279;52.426;10.488;2023-07-13T11:43:11;3.00;;;2.28;;
61413;SDS011;47279;52.426;10.488;2023-07-13T11:45:38;2.50;;;2.00;;
61413;SDS011;47279;52.426;10.488;2023-07-13T11:48:04;2.30;;;2.10;;
61413;SDS011;47279;52.426;10.488;2023-07-13T11:50:31;2.22;;;2.00;;
61413;SDS011;47279;52.426;10.488;2023-07-13T11:52:57;2.25;;;2.00;;
61413;SDS011;47279;52.426;10.488;2023-07-13T11:55:24;2.10;;;2.00;;
61413;SDS011;47279;52.426;10.488;2023-07-13T11:58:00;2.40;;;1.80;;
61413;SDS011;47279;52.426;10.488;2023-07-13T12:00:29;2.45;;;2.00;;
61413;SDS011;47279;52.426;10.488;2023-07-13T12:02:57;2.40;;;1.90;;
61413;SDS011;47279;52.426;10.488;2023-07-13T12:05:25;2.75;;;2.08;;
61413;SDS011;47279;52.426;10.488;2023-07-13T12:07:51;2.25;;;2.05;;
61413;SDS011;47279;52.426;10.488;2023-07-13T12:12:48;2.00;;;1.80;;
61413;SDS011;47279;52.426;10.488;2023-07-13T12:15:14;2.65;;;2.22;;
61413;SDS011;47279;52.426;10.488;2023-07-13T12:17:40;2.33;;;2.13;;
61413;SDS011;47279;52.426;10.488;2023-07-13T12:20:14;2.72;;;2.03;;
61413;SDS011;47279;52.426;10.488;2023-07-13T12:22:45;2.10;;;2.00;;
61413;SDS011;47279;52.426;10.488;2023-07-13T12:25:12;2.60;;;2.10;;
61413;SDS011;47279;52.426;10.488;2023-07-13T12:27:38;2.58;;;1.98;;
61413;SDS011;47279;52.426;10.488;2023-07-13T12:30:05;1.92;;;1.83;;
61413;SDS011;47279;52.426;10.488;2023-07-13T12:32:31;2.15;;;2.03;;
61413;SDS011;47279;52.426;10.488;2023-07-13T12:35:14;2.10;;;1.90;;
61413;SDS011;47279;52.426;10.488;2023-07-13T12:37:44;1.80;;;1.70;;
61413;SDS011;47279;52.426;10.488;2023-07-13T12:40:13;2.17;;;1.90;;
61413;SDS011;47279;52.426;10.488;2023-07-13T12:42:40;2.15;;;1.95;;
61413;SDS011;47279;52.426;10.488;2023-07-13T12:45:17;2.08;;;1.88;;
61413;SDS011;47279;52.426;10.488;2023-07-13T12:47:44;1.90;;;1.80;;
61413;SDS011;47279;52.426;10.488;2023-07-13T12:50:16;2.03;;;1.83;;
61413;SDS011;47279;52.426;10.488;2023-07-13T12:52:43;2.10;;;1.90;;
61413;SDS011;47279;52.426;10.488;2023-07-13T12:55:15;2.38;;;2.17;;
61413;SDS011;47279;52.426;10.488;2023-07-13T12:57:53;2.13;;;1.92;;
61413;SDS011;47279;52.426;10.488;2023-07-13T13:02:46;1.90;;;1.80;;
61413;SDS011;47279;52.426;10.488;2023-07-13T13:05:14;1.90;;;1.80;;
61413;SDS011;47279;52.426;10.488;2023-07-13T13:07:40;2.20;;;2.00;;
61413;SDS011;47279;52.426;10.488;2023-07-13T13:10:13;1.90;;;1.80;;
61413;SDS011;47279;52.426;10.488;2023-07-13T13:12:40;2.00;;;1.80;;
61413;SDS011;47279;52.426;10.488;2023-07-13T13:15:09;1.80;;;1.67;;
61413;SDS011;47279;52.426;10.488;2023-07-13T13:17:36;1.98;;;1.88;;
61413;SDS011;47279;52.426;10.488;2023-07-13T13:20:16;1.67;;;1.58;;
61413;SDS011;47279;52.426;10.488;2023-07-13T13:22:42;2.10;;;1.90;;
61413;SDS011;47279;52.426;10.488;2023-07-13T13:25:10;2.30;;;2.10;;
61413;SDS011;47279;52.426;10.488;2023-07-13T13:27:36;1.92;;;1.83;;
61413;SDS011;47279;52.426;10.488;2023-07-13T13:30:02;1.73;;;1.63;;
61413;SDS011;47279;52.426;10.488;2023-07-13T13:32:30;2.00;;;1.58;;
61413;SDS011;47279;52.426;10.488;2023-07-13T13:34:56;1.77;;;1.60;;
61413;SDS011;47279;52.426;10.488;2023-07-13T13:37:22;2.30;;;2.00;;
61413;SDS011;47279;52.426;10.488;2023-07-13T13:39:50;2.22;;;1.80;;
61413;SDS011;47279;52.426;10.488;2023-07-13T13:42:17;1.92;;;1.77;;
61413;SDS011;47279;52.426;10.488;2023-07-13T13:44:44;1.70;;;1.60;;
61413;SDS011;47279;52.426;10.488;2023-07-13T13:49:51;1.70;;;1.60;;
61413;SDS011;47279;52.426;10.488;2023-07-13T13:52:17;2.22;;;2.03;;
61413;SDS011;47279;52.426;10.488;2023-07-13T13:54:43;2.00;;;1.80;;
61413;SDS011;47279;52.426;10.488;2023-07-13T13:57:09;1.83;;;1.70;;
61413;SDS011;47279;52.426;10.488;2023-07-13T13:59:37;1.83;;;1.73;;
61413;SDS011;47279;52.426;10.488;2023-07-13T14:02:10;1.75;;;1.65;;
61413;SDS011;47279;52.426;10.488;2023-07-13T14:04:41;1.70;;;1.60;;
61413;SDS011;47279;52.426;10.488;2023-07-13T14:07:07;2.03;;;1.63;;
61413;SDS011;47279;52.426;10.488;2023-07-13T14:09:33;2.00;;;1.70;;
61413;SDS011;47279;52.426;10.488;2023-07-13T14:11:59;3.20;;;1.80;;
61413;SDS011;47279;52.426;10.488;2023-07-13T14:14:25;1.95;;;1.60;;
61413;SDS011;47279;52.426;10.488;2023-07-13T14:16:52;1.60;;;1.50;;
61413;SDS011;47279;52.426;10.488;2023-07-13T14:19:19;1.73;;;1.63;;
61413;SDS011;47279;52.426;10.488;2023-07-13T14:21:45;1.88;;;1.70;;
61413;SDS011;47279;52.426;10.488;2023-07-13T14:24:14;1.80;;;1.70;;
61413;SDS011;47279;52.426;10.488;2023-07-13T14:26:40;1.63;;;1.52;;
61413;SDS011;47279;52.426;10.488;2023-07-13T14:29:12;1.90;;;1.60;;
61413;SDS011;47279;52.426;10.488;2023-07-13T14:31:39;2.35;;;1.50;;
61413;SDS011;47279;52.426;10.488;2023-07-13T14:34:05;1.85;;;1.75;;
61413;SDS011;47279;52.426;10.488;2023-07-13T14:38:57;1.70;;;1.60;;
61413;SDS011;47279;52.426;10.488;2023-07-13T14:41:24;1.60;;;1.50;;
61413;SDS011;47279;52.426;10.488;2023-07-13T14:43:50;2.30;;;1.80;;
61413;SDS011;47279;52.426;10.488;2023-07-13T14:46:20;2.50;;;1.50;;
61413;SDS011;47279;52.426;10.488;2023-07-13T14:48:49;2.17;;;1.60;;
61413;SDS011;47279;52.426;10.488;2023-07-13T14:51:15;1.60;;;1.50;;
61413;SDS011;47279;52.426;10.488;2023-07-13T14:53:41;1.88;;;1.58;;
61413;SDS011;47279;52.426;10.488;2023-07-13T14:56:12;1.92;;;1.65;;
61413;SDS011;47279;52.426;10.488;2023-07-13T14:58:39;2.53;;;2.33;;
61413;SDS011;47279;52.426;10.488;2023-07-13T15:01:08;1.70;;;1.58;;
61413;SDS011;47279;52.426;10.488;2023-07-13T15:03:34;1.67;;;1.58;;
61413;SDS011;47279;52.426;10.488;2023-07-13T15:06:01;1.58;;;1.48;;
61413;SDS011;47279;52.426;10.488;2023-07-13T15:08:28;1.55;;;1.45;;
61413;SDS011;47279;52.426;10.488;2023-07-13T15:10:54;2.15;;;1.60;;
61413;SDS011;47279;52.426;10.488;2023-07-13T15:13:22;1.80;;;1.50;;
61413;SDS011;47279;52.426;10.488;2023-07-13T15:15:52;1.70;;;1.60;;
61413;SDS011;47279;52.426;10.488;2023-07-13T15:18:18;1.75;;;1.65;;
61413;SDS011;47279;52.426;10.488;2023-07-13T15:20:45;2.75;;;1.50;;